sensor_id;sensor_type;location;lat;lon;timestamp;P1;durP1;ratioP1;P2;durP2;ratioP2
66542;SDS011;53395;37.360;-122.046;2024-03-07T00:01:29;1.00;;;0.50;;
66542;SDS011;53395;37.360;-122.046;2024-03-07T00:04:13;2.20;;;0.60;;
66542;SDS011;53395;37.360;-122.046;2024-03-07T00:06:58;1.00;;;0.40;;
66542;SDS011;53395;37.360;-122.046;2024-03-07T00:09:42;3.30;;;0.50;;
66542;SDS011;53395;37.360;-122.046;2024-03-07T00:12:27;1.05;;;0.40;;
66542;SDS011;53395;37.360;-122.046;2024-03-07T00:15:12;1.88;;;0.55;;
66542;SDS011;53395;37.360;-122.046;2024-03-07T00:17:57;1.13;;;0.52;;
66542;SDS011;53395;37.360;-122.046;2024-03-07T00:20:41;1.67;;;0.47;;
66542;SDS011;53395;37.360;-122.046;2024-03-07T00:23:27;1.67;;;0.43;;
66542;SDS011;53395;37.360;-122.046;2024-03-07T00:26:12;2.50;;;0.40;;
66542;SDS011;53395;37.360;-122.046;2024-03-07T00:28:56;1.52;;;0.47;;
66542;SDS011;53395;37.360;-122.046;2024-03-07T00:31:41;1.88;;;0.50;;
66542;SDS011;53395;37.360;-122.046;2024-03-07T00:34:26;1.63;;;0.50;;
66542;SDS011;53395;37.360;-122.046;2024-03-07T00:37:10;3.25;;;0.80;;
66542;SDS011;53395;37.360;-122.046;2024-03-07T00:39:55;5.22;;;0.77;;
66542;SDS011;53395;37.360;-122.046;2024-03-07T00:42:39;2.92;;;0.80;;
66542;SDS011;53395;37.360;-122.046;2024-03-07T00:45:24;3.40;;;0.90;;
66542;SDS011;53395;37.360;-122.046;2024-03-07T00:48:08;2.10;;;0.60;;
66542;SDS011;53395;37.360;-122.046;2024-03-07T00:50:53;1.70;;;0.50;;
66542;SDS011;53395;37.360;-122.046;2024-03-07T00:53:37;1.98;;;0.40;;
66542;SDS011;53395;37.360;-122.046;2024-03-07T00:56:22;0.95;;;0.47;;
66542;SDS011;53395;37.360;-122.046;2024-03-07T00:59:06;1.48;;;0.40;;
66542;SDS011;53395;37.360;-122.046;2024-03-07T01:01:51;1.00;;;0.43;;
66542;SDS011;53395;37.360;-122.046;2024-03-07T01:04:35;1.30;;;0.50;;
66542;SDS011;53395;37.360;-122.046;2024-03-07T01:07:20;1.52;;;0.60;;
66542;SDS011;53395;37.360;-122.046;2024-03-07T01:10:05;1.80;;;0.50;;
66542;SDS011;53395;37.360;-122.046;2024-03-07T01:12:50;1.13;;;0.45;;
66542;SDS011;53395;37.360;-122.046;2024-03-07T01:18:20;1.55;;;0.70;;
66542;SDS011;53395;37.360;-122.046;2024-03-07T01:21:05;2.30;;;0.50;;
66542;SDS011;53395;37.360;-122.046;2024-03-07T01:23:49;2.88;;;1.02;;
66542;SDS011;53395;37.360;-122.046;2024-03-07T01:26:34;3.10;;;0.93;;
66542;SDS011;53395;37.360;-122.046;2024-03-07T01:29:18;3.97;;;1.20;;
66542;SDS011;53395;37.360;-122.046;2024-03-07T01:32:03;3.53;;;1.08;;
66542;SDS011;53395;37.360;-122.046;2024-03-07T01:34:47;3.30;;;0.93;;
66542;SDS011;53395;37.360;-122.046;2024-03-07T01:37:31;3.20;;;0.80;;
66542;SDS011;53395;37.360;-122.046;2024-03-07T01:40:16;2.17;;;0.85;;
66542;SDS011;53395;37.360;-122.046;2024-03-07T01:43:03;2.30;;;0.70;;
66542;SDS011;53395;37.360;-122.046;2024-03-07T01:45:49;2.40;;;0.90;;
66542;SDS011;53395;37.360;-122.046;2024-03-07T01:48:38;2.28;;;0.73;;
66542;SDS011;53395;37.360;-122.046;2024-03-07T01:51:24;2.65;;;0.90;;
66542;SDS011;53395;37.360;-122.046;2024-03-07T01:54:09;2.80;;;1.00;;
66542;SDS011;53395;37.360;-122.046;2024-03-07T01:56:54;2.65;;;0.90;;
66542;SDS011;53395;37.360;-122.046;2024-03-07T01:59:40;3.75;;;1.10;;
66542;SDS011;53395;37.360;-122.046;2024-03-07T02:02:24;2.70;;;0.80;;
66542;SDS011;53395;37.360;-122.046;2024-03-07T02:05:09;4.38;;;0.95;;
66542;SDS011;53395;37.360;-122.046;2024-03-07T02:07:54;2.50;;;0.85;;
66542;SDS011;53395;37.360;-122.046;2024-03-07T02:10:39;4.43;;;1.10;;
66542;SDS011;53395;37.360;-122.046;2024-03-07T02:13:24;2.70;;;1.10;;
66542;SDS011;53395;37.360;-122.046;2024-03-07T02:16:08;2.47;;;1.00;;
66542;SDS011;53395;37.360;-122.046;2024-03-07T02:18:53;3.75;;;1.13;;
66542;SDS011;53395;37.360;-122.046;2024-03-07T02:21:38;4.88;;;1.77;;
66542;SDS011;53395;37.360;-122.046;2024-03-07T02:24:23;5.13;;;1.30;;
66542;SDS011;53395;37.360;-122.046;2024-03-07T02:27:07;2.53;;;1.02;;
66542;SDS011;53395;37.360;-122.046;2024-03-07T02:29:53;8.25;;;1.55;;
66542;SDS011;53395;37.360;-122.046;2024-03-07T02:32:38;2.42;;;1.00;;
66542;SDS011;53395;37.360;-122.046;2024-03-07T02:35:22;3.92;;;1.25;;
66542;SDS011;53395;37.360;-122.046;2024-03-07T02:38:07;2.35;;;1.00;;
66542;SDS011;53395;37.360;-122.046;2024-03-07T02:40:54;4.68;;;1.08;;
66542;SDS011;53395;37.360;-122.046;2024-03-07T02:43:40;5.38;;;0.95;;
66542;SDS011;53395;37.360;-122.046;2024-03-07T02:46:24;3.08;;;0.95;;
66542;SDS011;53395;37.360;-122.046;2024-03-07T02:49:10;3.67;;;1.08;;
66542;SDS011;53395;37.360;-122.046;2024-03-07T02:51:55;5.40;;;1.63;;
66542;SDS011;53395;37.360;-122.046;2024-03-07T02:54:39;4.75;;;1.23;;
66542;SDS011;53395;37.360;-122.046;2024-03-07T02:57:24;2.85;;;1.05;;
66542;SDS011;53395;37.360;-122.046;2024-03-07T03:00:09;3.65;;;1.02;;
66542;SDS011;53395;37.360;-122.046;2024-03-07T03:03:03;4.95;;;1.00;;
66542;SDS011;53395;37.360;-122.046;2024-03-07T03:05:48;3.38;;;0.90;;
66542;SDS011;53395;37.360;-122.046;2024-03-07T03:08:32;8.40;;;1.50;;
66542;SDS011;53395;37.360;-122.046;2024-03-07T03:11:18;5.53;;;0.93;;
66542;SDS011;53395;37.360;-122.046;2024-03-07T03:14:04;3.00;;;0.90;;
66542;SDS011;53395;37.360;-122.046;2024-03-07T03:16:48;7.97;;;1.38;;
66542;SDS011;53395;37.360;-122.046;2024-03-07T03:19:33;5.85;;;0.98;;
66542;SDS011;53395;37.360;-122.046;2024-03-07T03:22:17;4.90;;;1.35;;
66542;SDS011;53395;37.360;-122.046;2024-03-07T03:25:02;3.55;;;1.20;;
66542;SDS011;53395;37.360;-122.046;2024-03-07T03:27:47;4.22;;;1.10;;
66542;SDS011;53395;37.360;-122.046;2024-03-07T03:30:31;9.02;;;1.60;;
66542;SDS011;53395;37.360;-122.046;2024-03-07T03:33:16;8.27;;;1.35;;
66542;SDS011;53395;37.360;-122.046;2024-03-07T03:36:01;5.07;;;1.50;;
66542;SDS011;53395;37.360;-122.046;2024-03-07T03:38:46;5.43;;;1.60;;
66542;SDS011;53395;37.360;-122.046;2024-03-07T03:41:30;8.43;;;1.70;;
66542;SDS011;53395;37.360;-122.046;2024-03-07T03:44:15;5.07;;;1.42;;
66542;SDS011;53395;37.360;-122.046;2024-03-07T03:47:00;5.28;;;1.50;;
66542;SDS011;53395;37.360;-122.046;2024-03-07T03:49:46;9.40;;;1.60;;
66542;SDS011;53395;37.360;-122.046;2024-03-07T03:52:30;5.50;;;1.10;;
66542;SDS011;53395;37.360;-122.046;2024-03-07T03:55:15;8.65;;;1.23;;
66542;SDS011;53395;37.360;-122.046;2024-03-07T03:58:00;5.78;;;0.88;;
66542;SDS011;53395;37.360;-122.046;2024-03-07T04:00:44;4.05;;;1.00;;
66542;SDS011;53395;37.360;-122.046;2024-03-07T04:03:28;4.55;;;0.95;;
66542;SDS011;53395;37.360;-122.046;2024-03-07T04:06:14;8.13;;;1.60;;
66542;SDS011;53395;37.360;-122.046;2024-03-07T04:08:59;5.40;;;1.30;;
66542;SDS011;53395;37.360;-122.046;2024-03-07T04:11:44;6.15;;;1.35;;
66542;SDS011;53395;37.360;-122.046;2024-03-07T04:14:30;8.35;;;1.33;;
66542;SDS011;53395;37.360;-122.046;2024-03-07T04:17:16;5.13;;;1.50;;
66542;SDS011;53395;37.360;-122.046;2024-03-07T04:20:02;4.90;;;1.10;;
66542;SDS011;53395;37.360;-122.046;2024-03-07T04:22:55;6.80;;;1.15;;
66542;SDS011;53395;37.360;-122.046;2024-03-07T04:25:39;5.70;;;1.60;;
66542;SDS011;53395;37.360;-122.046;2024-03-07T04:28:25;7.88;;;1.02;;
66542;SDS011;53395;37.360;-122.046;2024-03-07T04:31:09;6.78;;;1.40;;
66542;SDS011;53395;37.360;-122.046;2024-03-07T04:33:54;4.35;;;0.95;;
66542;SDS011;53395;37.360;-122.046;2024-03-07T04:36:39;7.22;;;1.55;;
66542;SDS011;53395;37.360;-122.046;2024-03-07T04:39:25;4.82;;;0.90;;
66542;SDS011;53395;37.360;-122.046;2024-03-07T04:42:18;5.55;;;1.40;;
66542;SDS011;53395;37.360;-122.046;2024-03-07T04:45:03;6.68;;;1.42;;
66542;SDS011;53395;37.360;-122.046;2024-03-07T04:47:49;10.90;;;1.25;;
66542;SDS011;53395;37.360;-122.046;2024-03-07T04:50:33;8.80;;;1.42;;
66542;SDS011;53395;37.360;-122.046;2024-03-07T04:53:18;6.47;;;1.02;;
66542;SDS011;53395;37.360;-122.046;2024-03-07T04:56:02;4.18;;;1.15;;
66542;SDS011;53395;37.360;-122.046;2024-03-07T04:58:47;3.78;;;1.13;;
66542;SDS011;53395;37.360;-122.046;2024-03-07T05:01:33;6.70;;;1.27;;
66542;SDS011;53395;37.360;-122.046;2024-03-07T05:04:18;3.50;;;0.90;;
66542;SDS011;53395;37.360;-122.046;2024-03-07T05:07:02;5.18;;;0.90;;
66542;SDS011;53395;37.360;-122.046;2024-03-07T05:09:47;9.10;;;1.05;;
66542;SDS011;53395;37.360;-122.046;2024-03-07T05:12:32;5.82;;;0.80;;
66542;SDS011;53395;37.360;-122.046;2024-03-07T05:15:17;6.05;;;0.90;;
66542;SDS011;53395;37.360;-122.046;2024-03-07T05:18:02;4.90;;;1.23;;
66542;SDS011;53395;37.360;-122.046;2024-03-07T05:20:47;6.25;;;1.30;;
66542;SDS011;53395;37.360;-122.046;2024-03-07T05:23:31;8.52;;;1.38;;
66542;SDS011;53395;37.360;-122.046;2024-03-07T05:26:15;3.25;;;1.13;;
66542;SDS011;53395;37.360;-122.046;2024-03-07T05:29:03;7.90;;;1.55;;
66542;SDS011;53395;37.360;-122.046;2024-03-07T05:31:54;6.45;;;1.10;;
66542;SDS011;53395;37.360;-122.046;2024-03-07T05:34:38;7.10;;;1.50;;
66542;SDS011;53395;37.360;-122.046;2024-03-07T05:37:24;3.15;;;1.17;;
66542;SDS011;53395;37.360;-122.046;2024-03-07T05:40:09;4.35;;;1.45;;
66542;SDS011;53395;37.360;-122.046;2024-03-07T05:42:53;7.07;;;1.38;;
66542;SDS011;53395;37.360;-122.046;2024-03-07T05:45:39;7.20;;;1.80;;
66542;SDS011;53395;37.360;-122.046;2024-03-07T05:48:23;5.95;;;1.70;;
66542;SDS011;53395;37.360;-122.046;2024-03-07T05:51:08;8.70;;;1.38;;
66542;SDS011;53395;37.360;-122.046;2024-03-07T05:53:54;11.15;;;1.77;;
66542;SDS011;53395;37.360;-122.046;2024-03-07T05:56:39;6.13;;;2.08;;
66542;SDS011;53395;37.360;-122.046;2024-03-07T05:59:23;10.20;;;1.95;;
66542;SDS011;53395;37.360;-122.046;2024-03-07T06:02:08;5.82;;;1.60;;
66542;SDS011;53395;37.360;-122.046;2024-03-07T06:04:52;7.13;;;1.60;;
66542;SDS011;53395;37.360;-122.046;2024-03-07T06:07:36;5.50;;;1.58;;
66542;SDS011;53395;37.360;-122.046;2024-03-07T06:10:21;5.22;;;1.40;;
66542;SDS011;53395;37.360;-122.046;2024-03-07T06:13:09;4.85;;;1.27;;
66542;SDS011;53395;37.360;-122.046;2024-03-07T06:15:54;4.43;;;1.20;;
66542;SDS011;53395;37.360;-122.046;2024-03-07T06:18:39;7.28;;;1.65;;
66542;SDS011;53395;37.360;-122.046;2024-03-07T06:21:24;6.85;;;1.60;;
66542;SDS011;53395;37.360;-122.046;2024-03-07T06:24:09;8.05;;;1.58;;
66542;SDS011;53395;37.360;-122.046;2024-03-07T06:26:55;6.75;;;1.40;;
66542;SDS011;53395;37.360;-122.046;2024-03-07T06:29:47;5.25;;;1.50;;
66542;SDS011;53395;37.360;-122.046;2024-03-07T06:32:34;3.72;;;1.30;;
66542;SDS011;53395;37.360;-122.046;2024-03-07T06:35:20;4.88;;;1.38;;
66542;SDS011;53395;37.360;-122.046;2024-03-07T06:38:06;6.80;;;1.20;;
66542;SDS011;53395;37.360;-122.046;2024-03-07T06:40:50;6.28;;;1.20;;
66542;SDS011;53395;37.360;-122.046;2024-03-07T06:43:35;3.72;;;1.25;;
66542;SDS011;53395;37.360;-122.046;2024-03-07T06:46:20;4.15;;;1.60;;
66542;SDS011;53395;37.360;-122.046;2024-03-07T06:49:05;5.70;;;1.73;;
66542;SDS011;53395;37.360;-122.046;2024-03-07T06:51:53;7.18;;;1.60;;
66542;SDS011;53395;37.360;-122.046;2024-03-07T06:54:38;6.82;;;1.60;;
66542;SDS011;53395;37.360;-122.046;2024-03-07T06:57:22;3.70;;;1.65;;
66542;SDS011;53395;37.360;-122.046;2024-03-07T07:00:07;7.88;;;1.40;;
66542;SDS011;53395;37.360;-122.046;2024-03-07T07:02:54;4.55;;;1.70;;
66542;SDS011;53395;37.360;-122.046;2024-03-07T07:05:39;5.38;;;1.60;;
66542;SDS011;53395;37.360;-122.046;2024-03-07T07:08:24;5.53;;;1.80;;
66542;SDS011;53395;37.360;-122.046;2024-03-07T07:11:09;7.28;;;1.65;;
66542;SDS011;53395;37.360;-122.046;2024-03-07T07:13:55;5.70;;;1.70;;
66542;SDS011;53395;37.360;-122.046;2024-03-07T07:16:39;5.10;;;1.80;;
66542;SDS011;53395;37.360;-122.046;2024-03-07T07:19:29;6.70;;;2.08;;
66542;SDS011;53395;37.360;-122.046;2024-03-07T07:22:14;5.38;;;1.58;;
66542;SDS011;53395;37.360;-122.046;2024-03-07T07:24:58;8.00;;;1.95;;
66542;SDS011;53395;37.360;-122.046;2024-03-07T07:27:43;6.38;;;1.42;;
66542;SDS011;53395;37.360;-122.046;2024-03-07T07:30:28;8.45;;;1.85;;
66542;SDS011;53395;37.360;-122.046;2024-03-07T07:33:13;5.57;;;2.08;;
66542;SDS011;53395;37.360;-122.046;2024-03-07T07:35:58;5.97;;;1.80;;
66542;SDS011;53395;37.360;-122.046;2024-03-07T07:38:42;8.00;;;1.98;;
66542;SDS011;53395;37.360;-122.046;2024-03-07T07:41:26;6.10;;;1.70;;
66542;SDS011;53395;37.360;-122.046;2024-03-07T07:44:11;5.57;;;1.75;;
66542;SDS011;53395;37.360;-122.046;2024-03-07T07:46:55;7.68;;;1.75;;
66542;SDS011;53395;37.360;-122.046;2024-03-07T07:49:40;4.82;;;1.95;;
66542;SDS011;53395;37.360;-122.046;2024-03-07T07:52:25;3.80;;;1.75;;
66542;SDS011;53395;37.360;-122.046;2024-03-07T07:55:10;8.52;;;2.15;;
66542;SDS011;53395;37.360;-122.046;2024-03-07T07:57:59;3.78;;;2.10;;
66542;SDS011;53395;37.360;-122.046;2024-03-07T08:00:44;5.97;;;1.90;;
66542;SDS011;53395;37.360;-122.046;2024-03-07T08:03:29;8.65;;;2.42;;
66542;SDS011;53395;37.360;-122.046;2024-03-07T08:06:14;6.05;;;2.00;;
66542;SDS011;53395;37.360;-122.046;2024-03-07T08:08:58;6.78;;;1.70;;
66542;SDS011;53395;37.360;-122.046;2024-03-07T08:11:43;5.22;;;2.03;;
66542;SDS011;53395;37.360;-122.046;2024-03-07T08:14:27;8.38;;;2.05;;
66542;SDS011;53395;37.360;-122.046;2024-03-07T08:17:13;5.75;;;2.10;;
66542;SDS011;53395;37.360;-122.046;2024-03-07T08:19:57;7.75;;;1.90;;
66542;SDS011;53395;37.360;-122.046;2024-03-07T08:22:42;5.15;;;1.50;;
66542;SDS011;53395;37.360;-122.046;2024-03-07T08:25:27;5.70;;;1.60;;
66542;SDS011;53395;37.360;-122.046;2024-03-07T08:28:13;8.68;;;1.80;;
66542;SDS011;53395;37.360;-122.046;2024-03-07T08:30:58;5.18;;;1.85;;
66542;SDS011;53395;37.360;-122.046;2024-03-07T08:33:43;7.47;;;1.83;;
66542;SDS011;53395;37.360;-122.046;2024-03-07T08:39:13;5.45;;;1.92;;
66542;SDS011;53395;37.360;-122.046;2024-03-07T08:41:58;6.55;;;1.70;;
66542;SDS011;53395;37.360;-122.046;2024-03-07T08:44:43;4.40;;;1.70;;
66542;SDS011;53395;37.360;-122.046;2024-03-07T08:47:27;7.40;;;2.25;;
66542;SDS011;53395;37.360;-122.046;2024-03-07T08:50:12;6.32;;;1.90;;
66542;SDS011;53395;37.360;-122.046;2024-03-07T08:52:57;5.95;;;1.70;;
66542;SDS011;53395;37.360;-122.046;2024-03-07T08:55:42;7.40;;;2.00;;
66542;SDS011;53395;37.360;-122.046;2024-03-07T08:58:26;5.80;;;2.17;;
66542;SDS011;53395;37.360;-122.046;2024-03-07T09:01:12;6.10;;;1.92;;
66542;SDS011;53395;37.360;-122.046;2024-03-07T09:03:56;5.10;;;1.67;;
66542;SDS011;53395;37.360;-122.046;2024-03-07T09:06:43;5.65;;;2.00;;
66542;SDS011;53395;37.360;-122.046;2024-03-07T09:09:31;5.55;;;1.65;;
66542;SDS011;53395;37.360;-122.046;2024-03-07T09:12:15;5.20;;;1.75;;
66542;SDS011;53395;37.360;-122.046;2024-03-07T09:14:59;4.07;;;1.80;;
66542;SDS011;53395;37.360;-122.046;2024-03-07T09:17:44;4.57;;;1.60;;
66542;SDS011;53395;37.360;-122.046;2024-03-07T09:20:29;6.72;;;2.03;;
66542;SDS011;53395;37.360;-122.046;2024-03-07T09:23:15;4.15;;;1.80;;
66542;SDS011;53395;37.360;-122.046;2024-03-07T09:26:00;5.32;;;2.10;;
66542;SDS011;53395;37.360;-122.046;2024-03-07T09:28:47;3.53;;;1.60;;
66542;SDS011;53395;37.360;-122.046;2024-03-07T09:31:34;4.38;;;1.75;;
66542;SDS011;53395;37.360;-122.046;2024-03-07T09:34:19;4.95;;;1.60;;
66542;SDS011;53395;37.360;-122.046;2024-03-07T09:37:06;4.13;;;1.70;;
66542;SDS011;53395;37.360;-122.046;2024-03-07T09:39:54;6.10;;;1.33;;
66542;SDS011;53395;37.360;-122.046;2024-03-07T09:42:45;4.18;;;1.80;;
66542;SDS011;53395;37.360;-122.046;2024-03-07T09:45:30;5.03;;;1.63;;
66542;SDS011;53395;37.360;-122.046;2024-03-07T09:48:15;5.25;;;1.70;;
66542;SDS011;53395;37.360;-122.046;2024-03-07T09:51:01;3.67;;;1.48;;
66542;SDS011;53395;37.360;-122.046;2024-03-07T09:53:48;5.45;;;1.63;;
66542;SDS011;53395;37.360;-122.046;2024-03-07T09:56:33;5.57;;;1.65;;
66542;SDS011;53395;37.360;-122.046;2024-03-07T09:59:21;4.95;;;1.92;;
66542;SDS011;53395;37.360;-122.046;2024-03-07T10:02:10;5.07;;;1.70;;
66542;SDS011;53395;37.360;-122.046;2024-03-07T10:04:56;4.30;;;1.40;;
66542;SDS011;53395;37.360;-122.046;2024-03-07T10:07:41;4.50;;;1.58;;
66542;SDS011;53395;37.360;-122.046;2024-03-07T10:10:26;6.93;;;1.80;;
66542;SDS011;53395;37.360;-122.046;2024-03-07T10:13:10;8.20;;;1.90;;
66542;SDS011;53395;37.360;-122.046;2024-03-07T10:15:59;6.40;;;1.73;;
66542;SDS011;53395;37.360;-122.046;2024-03-07T10:18:44;6.18;;;2.10;;
66542;SDS011;53395;37.360;-122.046;2024-03-07T10:24:14;5.20;;;1.75;;
66542;SDS011;53395;37.360;-122.046;2024-03-07T10:26:58;3.83;;;1.70;;
66542;SDS011;53395;37.360;-122.046;2024-03-07T10:29:45;5.60;;;2.20;;
66542;SDS011;53395;37.360;-122.046;2024-03-07T10:32:30;5.47;;;1.85;;
66542;SDS011;53395;37.360;-122.046;2024-03-07T10:35:19;5.28;;;1.88;;
66542;SDS011;53395;37.360;-122.046;2024-03-07T10:38:03;7.00;;;2.38;;
66542;SDS011;53395;37.360;-122.046;2024-03-07T10:40:54;6.13;;;2.10;;
66542;SDS011;53395;37.360;-122.046;2024-03-07T10:43:42;5.55;;;2.00;;
66542;SDS011;53395;37.360;-122.046;2024-03-07T10:46:29;5.45;;;2.22;;
66542;SDS011;53395;37.360;-122.046;2024-03-07T10:49:15;4.85;;;1.90;;
66542;SDS011;53395;37.360;-122.046;2024-03-07T10:52:06;6.10;;;1.90;;
66542;SDS011;53395;37.360;-122.046;2024-03-07T10:55:15;5.10;;;1.88;;
66542;SDS011;53395;37.360;-122.046;2024-03-07T10:58:03;6.75;;;2.00;;
66542;SDS011;53395;37.360;-122.046;2024-03-07T11:00:51;5.45;;;1.70;;
66542;SDS011;53395;37.360;-122.046;2024-03-07T11:03:37;7.72;;;1.83;;
66542;SDS011;53395;37.360;-122.046;2024-03-07T11:06:22;5.95;;;2.03;;
66542;SDS011;53395;37.360;-122.046;2024-03-07T11:09:07;5.38;;;1.85;;
66542;SDS011;53395;37.360;-122.046;2024-03-07T11:11:55;4.72;;;1.45;;
66542;SDS011;53395;37.360;-122.046;2024-03-07T11:14:40;5.43;;;1.42;;
66542;SDS011;53395;37.360;-122.046;2024-03-07T11:17:26;6.60;;;1.40;;
66542;SDS011;53395;37.360;-122.046;2024-03-07T11:20:26;6.78;;;1.55;;
66542;SDS011;53395;37.360;-122.046;2024-03-07T11:23:28;5.95;;;1.45;;
66542;SDS011;53395;37.360;-122.046;2024-03-07T11:26:13;4.68;;;1.58;;
66542;SDS011;53395;37.360;-122.046;2024-03-07T11:28:57;6.38;;;1.58;;
66542;SDS011;53395;37.360;-122.046;2024-03-07T11:31:42;3.13;;;1.52;;
66542;SDS011;53395;37.360;-122.046;2024-03-07T11:34:29;4.63;;;1.40;;
66542;SDS011;53395;37.360;-122.046;2024-03-07T11:43:05;7.90;;;1.60;;
66542;SDS011;53395;37.360;-122.046;2024-03-07T11:45:50;6.35;;;1.80;;
66542;SDS011;53395;37.360;-122.046;2024-03-07T11:48:38;6.55;;;1.80;;
66542;SDS011;53395;37.360;-122.046;2024-03-07T11:51:24;5.05;;;1.33;;
66542;SDS011;53395;37.360;-122.046;2024-03-07T11:54:12;5.78;;;1.55;;
66542;SDS011;53395;37.360;-122.046;2024-03-07T11:56:58;4.63;;;1.40;;
66542;SDS011;53395;37.360;-122.046;2024-03-07T11:59:42;5.53;;;1.17;;
66542;SDS011;53395;37.360;-122.046;2024-03-07T12:02:30;5.15;;;1.58;;
66542;SDS011;53395;37.360;-122.046;2024-03-07T12:05:14;4.70;;;1.58;;
66542;SDS011;53395;37.360;-122.046;2024-03-07T12:08:03;4.30;;;1.40;;
66542;SDS011;53395;37.360;-122.046;2024-03-07T12:10:49;6.25;;;1.23;;
66542;SDS011;53395;37.360;-122.046;2024-03-07T12:13:38;7.10;;;1.85;;
66542;SDS011;53395;37.360;-122.046;2024-03-07T12:16:22;2.85;;;1.08;;
66542;SDS011;53395;37.360;-122.046;2024-03-07T12:19:08;3.38;;;1.15;;
66542;SDS011;53395;37.360;-122.046;2024-03-07T12:21:57;6.75;;;1.05;;
66542;SDS011;53395;37.360;-122.046;2024-03-07T12:24:42;3.42;;;1.00;;
66542;SDS011;53395;37.360;-122.046;2024-03-07T12:27:27;10.35;;;1.80;;
66542;SDS011;53395;37.360;-122.046;2024-03-07T12:30:15;4.40;;;1.00;;
66542;SDS011;53395;37.360;-122.046;2024-03-07T12:33:01;4.82;;;1.30;;
66542;SDS011;53395;37.360;-122.046;2024-03-07T12:35:48;3.88;;;1.20;;
66542;SDS011;53395;37.360;-122.046;2024-03-07T12:38:36;7.38;;;1.73;;
66542;SDS011;53395;37.360;-122.046;2024-03-07T12:41:22;8.88;;;1.50;;
66542;SDS011;53395;37.360;-122.046;2024-03-07T12:44:07;5.25;;;1.10;;
66542;SDS011;53395;37.360;-122.046;2024-03-07T12:46:56;5.95;;;1.30;;
66542;SDS011;53395;37.360;-122.046;2024-03-07T12:49:44;4.57;;;1.40;;
66542;SDS011;53395;37.360;-122.046;2024-03-07T12:52:29;5.32;;;1.05;;
66542;SDS011;53395;37.360;-122.046;2024-03-07T12:55:14;8.05;;;1.80;;
66542;SDS011;53395;37.360;-122.046;2024-03-07T12:58:02;8.48;;;1.33;;
66542;SDS011;53395;37.360;-122.046;2024-03-07T13:00:48;7.10;;;1.25;;
66542;SDS011;53395;37.360;-122.046;2024-03-07T13:03:33;7.82;;;1.40;;
66542;SDS011;53395;37.360;-122.046;2024-03-07T13:09:13;4.68;;;0.85;;
66542;SDS011;53395;37.360;-122.046;2024-03-07T13:11:58;3.58;;;1.05;;
66542;SDS011;53395;37.360;-122.046;2024-03-07T13:14:47;7.22;;;1.15;;
66542;SDS011;53395;37.360;-122.046;2024-03-07T13:17:31;7.88;;;1.02;;
66542;SDS011;53395;37.360;-122.046;2024-03-07T13:20:17;7.95;;;1.10;;
66542;SDS011;53395;37.360;-122.046;2024-03-07T13:23:05;5.70;;;0.80;;
66542;SDS011;53395;37.360;-122.046;2024-03-07T13:28:35;5.18;;;0.98;;
66542;SDS011;53395;37.360;-122.046;2024-03-07T13:31:20;5.82;;;1.23;;
66542;SDS011;53395;37.360;-122.046;2024-03-07T13:34:04;8.23;;;1.40;;
66542;SDS011;53395;37.360;-122.046;2024-03-07T13:36:49;15.13;;;1.90;;
66542;SDS011;53395;37.360;-122.046;2024-03-07T13:39:33;4.47;;;0.93;;
66542;SDS011;53395;37.360;-122.046;2024-03-07T13:42:18;7.00;;;1.27;;
66542;SDS011;53395;37.360;-122.046;2024-03-07T13:45:03;12.40;;;1.83;;
66542;SDS011;53395;37.360;-122.046;2024-03-07T13:47:50;13.50;;;1.33;;
66542;SDS011;53395;37.360;-122.046;2024-03-07T13:50:36;11.98;;;1.40;;
66542;SDS011;53395;37.360;-122.046;2024-03-07T13:53:39;8.13;;;1.45;;
66542;SDS011;53395;37.360;-122.046;2024-03-07T13:56:39;6.63;;;1.08;;
66542;SDS011;53395;37.360;-122.046;2024-03-07T13:59:32;13.55;;;1.70;;
66542;SDS011;53395;37.360;-122.046;2024-03-07T14:02:37;7.07;;;1.48;;
66542;SDS011;53395;37.360;-122.046;2024-03-07T14:06:12;12.60;;;1.70;;
66542;SDS011;53395;37.360;-122.046;2024-03-07T14:11:38;9.20;;;1.30;;
66542;SDS011;53395;37.360;-122.046;2024-03-07T14:14:41;9.18;;;1.40;;
66542;SDS011;53395;37.360;-122.046;2024-03-07T14:23:59;8.98;;;1.17;;
66542;SDS011;53395;37.360;-122.046;2024-03-07T14:32:56;10.63;;;1.38;;
66542;SDS011;53395;37.360;-122.046;2024-03-07T14:38:52;8.43;;;1.45;;
66542;SDS011;53395;37.360;-122.046;2024-03-07T14:44:28;15.10;;;1.52;;
66542;SDS011;53395;37.360;-122.046;2024-03-07T14:47:12;7.38;;;1.20;;
66542;SDS011;53395;37.360;-122.046;2024-03-07T14:49:58;4.88;;;1.60;;
66542;SDS011;53395;37.360;-122.046;2024-03-07T14:52:44;10.52;;;1.65;;
66542;SDS011;53395;37.360;-122.046;2024-03-07T14:55:29;10.68;;;1.38;;
66542;SDS011;53395;37.360;-122.046;2024-03-07T14:58:13;9.88;;;1.50;;
66542;SDS011;53395;37.360;-122.046;2024-03-07T15:01:00;7.13;;;1.08;;
66542;SDS011;53395;37.360;-122.046;2024-03-07T15:03:44;8.30;;;1.10;;
66542;SDS011;53395;37.360;-122.046;2024-03-07T15:06:29;7.38;;;1.30;;
66542;SDS011;53395;37.360;-122.046;2024-03-07T15:09:15;8.23;;;1.58;;
66542;SDS011;53395;37.360;-122.046;2024-03-07T15:12:00;10.10;;;1.30;;
66542;SDS011;53395;37.360;-122.046;2024-03-07T15:14:44;7.63;;;1.30;;
66542;SDS011;53395;37.360;-122.046;2024-03-07T15:17:29;6.47;;;1.02;;
66542;SDS011;53395;37.360;-122.046;2024-03-07T15:20:13;11.57;;;1.52;;
66542;SDS011;53395;37.360;-122.046;2024-03-07T15:23:07;5.63;;;1.40;;
66542;SDS011;53395;37.360;-122.046;2024-03-07T15:25:51;11.30;;;1.85;;
66542;SDS011;53395;37.360;-122.046;2024-03-07T15:28:36;7.95;;;1.50;;
66542;SDS011;53395;37.360;-122.046;2024-03-07T15:31:20;12.88;;;1.70;;
66542;SDS011;53395;37.360;-122.046;2024-03-07T15:34:04;12.13;;;1.40;;
66542;SDS011;53395;37.360;-122.046;2024-03-07T15:36:56;11.73;;;1.33;;
66542;SDS011;53395;37.360;-122.046;2024-03-07T15:39:42;12.38;;;1.20;;
66542;SDS011;53395;37.360;-122.046;2024-03-07T15:42:32;10.02;;;1.20;;
66542;SDS011;53395;37.360;-122.046;2024-03-07T15:45:17;7.43;;;1.55;;
66542;SDS011;53395;37.360;-122.046;2024-03-07T15:48:01;10.13;;;1.40;;
66542;SDS011;53395;37.360;-122.046;2024-03-07T15:51:06;7.47;;;1.50;;
66542;SDS011;53395;37.360;-122.046;2024-03-07T15:53:51;8.02;;;1.38;;
66542;SDS011;53395;37.360;-122.046;2024-03-07T15:56:36;15.98;;;1.70;;
66542;SDS011;53395;37.360;-122.046;2024-03-07T15:59:20;9.20;;;1.70;;
66542;SDS011;53395;37.360;-122.046;2024-03-07T16:02:05;9.18;;;1.60;;
66542;SDS011;53395;37.360;-122.046;2024-03-07T16:04:49;8.25;;;1.40;;
66542;SDS011;53395;37.360;-122.046;2024-03-07T16:07:34;7.50;;;1.40;;
66542;SDS011;53395;37.360;-122.046;2024-03-07T16:10:19;10.93;;;1.73;;
66542;SDS011;53395;37.360;-122.046;2024-03-07T16:13:04;8.55;;;1.52;;
66542;SDS011;53395;37.360;-122.046;2024-03-07T16:15:51;9.88;;;1.45;;
66542;SDS011;53395;37.360;-122.046;2024-03-07T16:18:36;12.60;;;1.80;;
66542;SDS011;53395;37.360;-122.046;2024-03-07T16:21:21;6.25;;;1.00;;
66542;SDS011;53395;37.360;-122.046;2024-03-07T16:24:06;6.50;;;1.50;;
66542;SDS011;53395;37.360;-122.046;2024-03-07T16:26:52;17.10;;;1.80;;
66542;SDS011;53395;37.360;-122.046;2024-03-07T16:29:36;9.10;;;1.48;;
66542;SDS011;53395;37.360;-122.046;2024-03-07T16:32:21;8.00;;;1.23;;
66542;SDS011;53395;37.360;-122.046;2024-03-07T16:35:06;9.60;;;1.58;;
66542;SDS011;53395;37.360;-122.046;2024-03-07T16:37:53;10.63;;;1.45;;